createdAt,value
2017-09-12T00:00:47.068Z,9.24
2017-09-12T00:01:46.802Z,9.19
2017-09-12T00:02:46.385Z,9.05
2017-09-12T00:03:47.054Z,9.05
2017-09-12T00:04:46.369Z,9.05
2017-09-12T00:05:46.356Z,9
2017-09-12T00:06:46.353Z,8.95
2017-09-12T00:07:46.676Z,9.04
2017-09-12T00:08:46.324Z,9.01
2017-09-12T00:09:46.645Z,9.08
2017-09-12T00:10:46.636Z,9.03
2017-09-12T00:11:46.707Z,8.95
2017-09-12T00:12:46.620Z,9.04
2017-09-12T00:13:46.286Z,9.01
2017-09-12T00:14:46.284Z,8.98
2017-09-12T00:15:46.255Z,9.08
2017-09-12T00:16:46.570Z,8.97
2017-09-12T00:17:46.233Z,9.04
2017-09-12T00:18:46.225Z,8.98
2017-09-12T00:19:46.211Z,8.95
2017-09-12T00:20:46.224Z,9.08
2017-09-12T00:21:46.526Z,8.95
2017-09-12T00:22:46.180Z,9.01
2017-09-12T00:23:46.502Z,9
2017-09-12T00:24:46.496Z,9.01
2017-09-12T00:25:46.153Z,9.03
2017-09-12T00:26:46.158Z,9.04
2017-09-12T00:27:46.461Z,8.95
2017-09-12T00:28:46.117Z,8.98
2017-09-12T00:29:46.436Z,8.94
2017-09-12T00:30:46.101Z,8.98
2017-09-12T00:31:46.087Z,9.03
2017-09-12T00:32:46.406Z,9.11
2017-09-12T00:33:46.070Z,9
2017-09-12T00:34:46.055Z,9.12
2017-09-12T00:35:46.402Z,9.08
2017-09-12T00:36:46.044Z,9.09
2017-09-12T00:37:46.027Z,9.03
2017-09-12T00:38:46.031Z,9.12
2017-09-12T00:39:46.005Z,8.98
2017-09-12T00:40:46.347Z,9.04
2017-09-12T00:41:45.984Z,9.08
2017-09-12T00:42:45.983Z,8.95
2017-09-12T00:43:46.291Z,9
2017-09-12T00:44:46.280Z,8.97
2017-09-12T00:45:45.965Z,9.01
2017-09-12T00:46:45.933Z,9.05
2017-09-12T00:47:46.288Z,8.87
2017-09-12T00:48:45.916Z,8.97
2017-09-12T00:49:46.243Z,9.01
2017-09-12T00:50:46.461Z,9
2017-09-12T00:51:46.505Z,8.98
2017-09-12T00:52:47.320Z,9.03
2017-09-12T00:53:46.411Z,8.95
2017-09-12T00:54:46.589Z,9.04
2017-09-12T00:55:46.634Z,9.04
2017-09-12T00:56:47.116Z,9.01
2017-09-12T00:57:46.349Z,9.03
2017-09-12T00:58:46.842Z,8.98
2017-09-12T00:59:46.891Z,8.97
2017-09-12T01:00:46.143Z,9.01
2017-09-12T01:01:46.297Z,9.01
2017-09-12T01:02:46.744Z,9.01
2017-09-12T01:03:47.129Z,8.95
2017-09-12T01:04:46.724Z,9.01
2017-09-12T01:05:46.080Z,8.98
2017-09-12T01:06:45.729Z,9.08
2017-09-12T01:07:46.069Z,9.01
2017-09-12T01:08:46.041Z,9.03
2017-09-12T01:09:45.710Z,9.01
2017-09-12T01:10:45.687Z,8.98
2017-09-12T01:11:45.672Z,9
2017-09-12T01:12:46.023Z,9.08
2017-09-12T01:13:45.654Z,9.04
2017-09-12T01:14:45.974Z,8.94
2017-09-12T01:15:45.960Z,9
2017-09-12T01:16:45.645Z,9
2017-09-12T01:17:45.628Z,9.03
2017-09-12T01:18:45.614Z,9
2017-09-12T01:19:46.246Z,9.08
2017-09-12T01:20:45.595Z,8.97
2017-09-12T01:21:46.627Z,9.03
2017-09-12T01:22:46.688Z,9.05
2017-09-12T01:23:46.747Z,9.01
2017-09-12T01:24:47.138Z,9.05
2017-09-12T01:25:46.724Z,8.98
2017-09-12T01:26:46.124Z,9.09
2017-09-12T01:27:46.460Z,9.11
2017-09-12T01:28:46.753Z,9.03
2017-09-12T01:29:46.168Z,9.04
2017-09-12T01:30:46.732Z,9.14
2017-09-12T01:31:46.650Z,9.12
2017-09-12T01:32:46.115Z,9.11
2017-09-12T01:33:46.871Z,9.05
2017-09-12T01:34:46.525Z,9.08
2017-09-12T01:35:46.197Z,9.05
2017-09-12T01:36:46.080Z,9.09
2017-09-12T01:37:45.424Z,9.14
2017-09-12T01:38:45.739Z,9.04
2017-09-12T01:39:45.406Z,9.09
2017-09-12T01:40:45.383Z,9.05
2017-09-12T01:41:45.376Z,9
2017-09-12T01:42:45.352Z,9.17
2017-09-12T01:43:45.665Z,9.01
2017-09-12T01:44:45.658Z,9.03
2017-09-12T01:45:45.321Z,9.05
2017-09-12T01:46:45.312Z,9.01
2017-09-12T01:47:45.312Z,9.01
2017-09-12T01:48:45.637Z,9
2017-09-12T01:49:45.640Z,8.98
2017-09-12T01:50:45.314Z,8.97
2017-09-12T01:51:45.274Z,9.03
2017-09-12T01:52:45.579Z,8.98
2017-09-12T01:53:45.571Z,9
2017-09-12T01:54:45.319Z,8.97
2017-09-12T01:55:45.276Z,9
2017-09-12T01:56:45.562Z,9.01
2017-09-12T01:57:45.572Z,9
2017-09-12T01:58:45.553Z,9.01
2017-09-12T01:59:45.524Z,8.98
2017-09-12T02:00:45.211Z,9.05
2017-09-12T02:01:45.498Z,9.04
2017-09-12T02:02:45.204Z,9.01
2017-09-12T02:03:45.194Z,9.04
2017-09-12T02:04:45.454Z,8.98
2017-09-12T02:05:45.494Z,8.98
2017-09-12T02:06:45.102Z,8.95
2017-09-12T02:07:45.421Z,9.01
2017-09-12T02:08:45.434Z,8.95
2017-09-12T02:09:45.072Z,9.05
2017-09-12T02:10:45.392Z,9.01
2017-09-12T02:11:45.054Z,9.04
2017-09-12T02:12:45.099Z,9.05
2017-09-12T02:13:45.054Z,9.09
2017-09-12T02:14:45.677Z,9.16
2017-09-12T02:15:45.343Z,9.12
2017-09-12T02:16:45.347Z,9.29
2017-09-12T02:17:45.327Z,9.32
2017-09-12T02:18:44.988Z,9.45
2017-09-12T02:19:45.300Z,9.52
2017-09-12T02:20:44.961Z,9.47
2017-09-12T02:21:44.954Z,9.56
2017-09-12T02:22:45.269Z,9.57
2017-09-12T02:23:45.604Z,9.62
2017-09-12T02:24:45.250Z,9.67
2017-09-12T02:25:44.913Z,9.72
2017-09-12T02:26:44.901Z,9.7
2017-09-12T02:27:45.218Z,9.72
2017-09-12T02:28:45.230Z,9.75
2017-09-12T02:29:44.890Z,9.74
2017-09-12T02:30:44.866Z,9.7
2017-09-12T02:31:45.183Z,9.67
2017-09-12T02:32:45.513Z,9.66
2017-09-12T02:33:45.527Z,9.67
2017-09-12T02:34:45.159Z,9.66
2017-09-12T02:35:44.810Z,9.77
2017-09-12T02:36:44.804Z,9.66
2017-09-12T02:37:45.144Z,9.74
2017-09-12T02:38:44.787Z,9.72
2017-09-12T02:39:45.098Z,9.77
2017-09-12T02:40:45.100Z,9.82
2017-09-12T02:41:44.752Z,9.85
2017-09-12T02:42:45.076Z,9.88
2017-09-12T02:43:45.067Z,9.98
2017-09-12T02:44:44.727Z,9.92
2017-09-12T02:45:44.712Z,9.92
2017-09-12T02:46:44.704Z,10.02
2017-09-12T02:47:44.718Z,10.02
2017-09-12T02:48:44.695Z,10.08
2017-09-12T02:49:45.002Z,10.05
2017-09-12T02:50:44.673Z,10.14
2017-09-12T02:51:45.317Z,10.1
2017-09-12T02:52:44.644Z,10.03
2017-09-12T02:53:45.292Z,10.05
2017-09-12T02:54:44.952Z,10.02
2017-09-12T02:55:44.947Z,10
2017-09-12T02:56:45.259Z,9.99
2017-09-12T02:57:44.923Z,10.07
2017-09-12T02:58:44.916Z,10.03
2017-09-12T02:59:44.585Z,10.07
2017-09-12T03:00:44.922Z,10.1
2017-09-12T03:01:44.555Z,10.17
2017-09-12T03:02:44.546Z,10.1
2017-09-12T03:03:44.538Z,10.23
2017-09-12T03:04:44.532Z,10.18
2017-09-12T03:05:44.519Z,10.13
2017-09-12T03:06:45.186Z,10.17
2017-09-12T03:07:45.168Z,10.15
2017-09-12T03:08:44.820Z,10.18
2017-09-12T03:09:44.477Z,10
2017-09-12T03:10:44.471Z,10.2
2017-09-12T03:11:44.791Z,10.18
2017-09-12T03:12:44.451Z,10.11
2017-09-12T03:13:44.441Z,10.14
2017-09-12T03:14:44.428Z,10.05
2017-09-12T03:15:44.747Z,10.05
2017-09-12T03:16:44.739Z,10.03
2017-09-12T03:17:44.747Z,10.03
2017-09-12T03:18:44.719Z,10.05
2017-09-12T03:19:44.709Z,10.07
2017-09-12T03:20:45.029Z,10.14
2017-09-12T03:21:44.361Z,10.1
2017-09-12T03:22:44.678Z,10.17
2017-09-12T03:23:44.670Z,10.18
2017-09-12T03:24:44.658Z,10.13
2017-09-12T03:25:44.322Z,10.14
2017-09-12T03:26:44.643Z,10.25
2017-09-12T03:27:44.302Z,10.29
2017-09-12T03:28:44.294Z,10.2
2017-09-12T03:29:44.283Z,10.23
2017-09-12T03:30:44.280Z,10.15
2017-09-12T03:31:44.272Z,10.31
2017-09-12T03:32:44.583Z,10.15
2017-09-12T03:33:44.924Z,10.26
2017-09-12T03:34:44.237Z,10.23
2017-09-12T03:35:44.563Z,10.15
2017-09-12T03:36:44.242Z,10.23
2017-09-12T03:37:44.544Z,10.25
2017-09-12T03:38:44.611Z,10.23
2017-09-12T03:39:44.516Z,10.25
2017-09-12T03:40:44.192Z,10.23
2017-09-12T03:41:44.170Z,10.26
2017-09-12T03:42:44.504Z,10.25
2017-09-12T03:43:44.168Z,10.29
2017-09-12T03:44:44.141Z,10.2
2017-09-12T03:45:44.131Z,10.2
2017-09-12T03:46:44.127Z,10.25
2017-09-12T03:47:44.443Z,10.28
2017-09-12T03:48:44.755Z,10.36
2017-09-12T03:49:44.422Z,10.35
2017-09-12T03:50:44.080Z,10.32
2017-09-12T03:51:44.409Z,10.28
2017-09-12T03:52:44.398Z,10.32
2017-09-12T03:53:44.712Z,10.25
2017-09-12T03:54:44.043Z,10.32
2017-09-12T03:55:44.044Z,10.29
2017-09-12T03:56:44.708Z,10.29
2017-09-12T03:57:44.353Z,10.23
2017-09-12T03:58:44.002Z,10.23
2017-09-12T03:59:43.996Z,10.17
2017-09-12T04:00:44.333Z,10.25
2017-09-12T04:01:43.979Z,10.2
2017-09-12T04:02:44.324Z,10.2
2017-09-12T04:03:44.616Z,10.28
2017-09-12T04:04:44.276Z,10.15
2017-09-12T04:05:44.267Z,10.14
2017-09-12T04:06:44.259Z,10.14
2017-09-12T04:07:43.919Z,10.07
2017-09-12T04:08:44.238Z,10.11
2017-09-12T04:09:43.900Z,10.02
2017-09-12T04:10:44.218Z,9.99
2017-09-12T04:11:44.209Z,9.93
2017-09-12T04:12:43.871Z,10.1
2017-09-12T04:13:43.859Z,9.93
2017-09-12T04:14:43.868Z,9.96
2017-09-12T04:15:44.506Z,9.9
2017-09-12T04:16:44.161Z,9.85
2017-09-12T04:17:43.822Z,9.81
2017-09-12T04:18:44.143Z,9.72
2017-09-12T04:19:44.145Z,9.67
2017-09-12T04:20:43.791Z,9.66
2017-09-12T04:21:43.790Z,9.64
2017-09-12T04:22:43.789Z,9.57
2017-09-12T04:23:44.095Z,9.6
2017-09-12T04:24:44.415Z,9.59
2017-09-12T04:25:43.748Z,9.53
2017-09-12T04:26:44.062Z,9.5
2017-09-12T04:27:43.724Z,9.47
2017-09-12T04:28:43.734Z,9.47
2017-09-12T04:29:44.047Z,9.5
2017-09-12T04:30:43.703Z,9.47
2017-09-12T04:31:43.698Z,9.47
2017-09-12T04:32:44.335Z,9.45
2017-09-12T04:33:43.996Z,9.45
2017-09-12T04:34:43.993Z,9.5
2017-09-12T04:35:43.644Z,9.44
2017-09-12T04:36:44.328Z,9.48
2017-09-12T04:37:43.962Z,9.5
2017-09-12T04:38:43.615Z,9.45
2017-09-12T04:39:43.934Z,9.38
2017-09-12T04:40:43.922Z,9.34
2017-09-12T04:41:43.596Z,9.34
2017-09-12T04:42:44.236Z,9.27
2017-09-12T04:43:43.895Z,9.38
2017-09-12T04:44:43.555Z,9.27
2017-09-12T04:45:44.227Z,9.34
2017-09-12T04:46:43.535Z,9.37
2017-09-12T04:47:44.214Z,9.32
2017-09-12T04:48:43.512Z,9.27
2017-09-12T04:49:43.834Z,9.26
2017-09-12T04:50:43.496Z,9.29
2017-09-12T04:51:43.816Z,9.44
2017-09-12T04:52:44.132Z,9.53
2017-09-12T04:53:43.794Z,9.55
2017-09-12T04:54:43.454Z,9.42
2017-09-12T04:55:43.771Z,9.47
2017-09-12T04:56:43.776Z,9.52
2017-09-12T04:57:43.450Z,9.52
2017-09-12T04:58:43.743Z,9.56
2017-09-12T04:59:43.733Z,9.67
2017-09-12T05:00:44.055Z,9.63
2017-09-12T05:01:43.719Z,9.72
2017-09-12T05:02:43.390Z,9.78
2017-09-12T05:03:43.365Z,9.92
2017-09-12T05:04:43.374Z,9.95
2017-09-12T05:05:43.341Z,9.99
2017-09-12T05:06:43.342Z,10.05
2017-09-12T05:07:43.324Z,9.99
2017-09-12T05:08:43.311Z,10.03
2017-09-12T05:09:43.303Z,10.15
2017-09-12T05:10:43.292Z,10.18
2017-09-12T05:11:43.615Z,10.2
2017-09-12T05:12:43.954Z,10.28
2017-09-12T05:13:43.596Z,10.26
2017-09-12T05:14:43.586Z,10.31
2017-09-12T05:15:43.245Z,10.29
2017-09-12T05:16:43.236Z,10.33
2017-09-12T05:17:43.223Z,10.38
2017-09-12T05:18:43.548Z,10.38
2017-09-12T05:19:43.530Z,10.41
2017-09-12T05:20:43.535Z,10.44
2017-09-12T05:21:43.193Z,10.46
2017-09-12T05:22:43.830Z,10.52
2017-09-12T05:23:43.506Z,10.57
2017-09-12T05:24:43.155Z,10.58
2017-09-12T05:25:43.157Z,10.63
2017-09-12T05:26:43.466Z,10.59
2017-09-12T05:27:43.804Z,10.69
2017-09-12T05:28:43.793Z,10.65
2017-09-12T05:29:43.118Z,10.73
2017-09-12T05:30:43.430Z,10.8
2017-09-12T05:31:43.088Z,10.77
2017-09-12T05:32:43.436Z,10.84
2017-09-12T05:33:43.401Z,10.91
2017-09-12T05:34:43.064Z,10.87
2017-09-12T05:35:43.386Z,10.9
2017-09-12T05:36:43.376Z,10.97
2017-09-12T05:37:43.036Z,10.97
2017-09-12T05:38:43.025Z,10.9
2017-09-12T05:39:43.036Z,10.9
2017-09-12T05:40:43.334Z,10.88
2017-09-12T05:41:43.356Z,10.88
2017-09-12T05:42:43.324Z,10.95
2017-09-12T05:43:42.982Z,11.03
2017-09-12T05:44:45.456Z,11.02
2017-09-12T05:45:43.313Z,10.92
2017-09-12T05:46:43.633Z,10.9
2017-09-12T05:47:43.617Z,10.94
2017-09-12T05:48:43.260Z,10.97
2017-09-12T05:49:42.930Z,11.05
2017-09-12T05:50:42.917Z,11.06
2017-09-12T05:51:42.909Z,10.98
2017-09-12T05:52:42.898Z,11.05
2017-09-12T05:53:43.292Z,11
2017-09-12T05:54:42.881Z,11.06
2017-09-12T05:55:43.215Z,11.13
2017-09-12T05:56:42.867Z,11.08
2017-09-12T05:57:43.202Z,11.09
2017-09-12T05:58:43.170Z,11.15
2017-09-12T05:59:42.854Z,11.18
2017-09-12T06:00:43.173Z,11.28
2017-09-12T06:01:42.816Z,11.31
2017-09-12T06:02:43.135Z,11.35
2017-09-12T06:03:42.801Z,11.42
2017-09-12T06:04:43.117Z,11.45
2017-09-12T06:05:43.491Z,11.61
2017-09-12T06:06:43.100Z,11.64
2017-09-12T06:07:43.428Z,11.75
2017-09-12T06:08:43.083Z,11.67
2017-09-12T06:09:43.082Z,11.79
2017-09-12T06:10:43.093Z,11.75
2017-09-12T06:11:43.394Z,11.84
2017-09-12T06:12:43.053Z,11.7
2017-09-12T06:13:43.046Z,11.81
2017-09-12T06:14:43.358Z,11.75
2017-09-12T06:15:42.696Z,11.95
2017-09-12T06:16:42.691Z,11.85
2017-09-12T06:17:43.358Z,11.98
2017-09-12T06:18:42.996Z,11.97
2017-09-12T06:19:42.663Z,12
2017-09-12T06:20:42.986Z,12
2017-09-12T06:21:42.645Z,12.01
2017-09-12T06:22:42.990Z,12.1
2017-09-12T06:23:42.653Z,12.03
2017-09-12T06:24:42.959Z,12.07
2017-09-12T06:25:42.967Z,11.97
2017-09-12T06:26:42.956Z,12.01
2017-09-12T06:27:42.598Z,12.01
2017-09-12T06:28:42.943Z,11.91
2017-09-12T06:29:42.582Z,11.94
2017-09-12T06:30:42.575Z,11.89
2017-09-12T06:31:42.896Z,11.79
2017-09-12T06:32:42.883Z,11.88
2017-09-12T06:33:42.550Z,11.89
2017-09-12T06:34:42.867Z,11.85
2017-09-12T06:35:43.189Z,11.78
2017-09-12T06:36:42.526Z,11.81
2017-09-12T06:37:42.855Z,11.78
2017-09-12T06:38:42.516Z,11.79
2017-09-12T06:39:42.829Z,11.78
2017-09-12T06:40:42.839Z,11.84
2017-09-12T06:41:42.483Z,11.76
2017-09-12T06:42:42.498Z,11.85
2017-09-12T06:43:43.151Z,11.82
2017-09-12T06:44:42.467Z,11.86
2017-09-12T06:45:42.452Z,11.79
2017-09-12T06:46:42.452Z,11.94
2017-09-12T06:47:42.458Z,12.04
2017-09-12T06:48:43.100Z,12.03
2017-09-12T06:49:42.775Z,12.01
2017-09-12T06:50:42.738Z,12.19
2017-09-12T06:51:42.400Z,12.15
2017-09-12T06:52:42.413Z,12.11
2017-09-12T06:53:42.386Z,12.13
2017-09-12T06:54:42.706Z,12.23
2017-09-12T06:55:42.369Z,12.22
2017-09-12T06:56:42.704Z,12.22
2017-09-12T06:57:42.383Z,12.26
2017-09-12T06:58:42.346Z,12.26
2017-09-12T06:59:42.353Z,12.29
2017-09-12T07:00:42.331Z,12.31
2017-09-12T07:01:42.337Z,12.31
2017-09-12T07:02:42.671Z,12.34
2017-09-12T07:03:42.659Z,12.36
2017-09-12T07:04:42.971Z,12.31
2017-09-12T07:05:42.310Z,12.33
2017-09-12T07:06:42.657Z,12.31
2017-09-12T07:07:42.275Z,12.29
2017-09-12T07:08:42.330Z,12.31
2017-09-12T07:09:42.263Z,12.33
2017-09-12T07:10:42.596Z,12.22
2017-09-12T07:11:42.573Z,12.28
2017-09-12T07:12:42.238Z,12.44
2017-09-12T07:13:42.230Z,12.7
2017-09-12T07:14:42.550Z,12.86
2017-09-12T07:15:42.545Z,13.1
2017-09-12T07:16:42.537Z,13.16
2017-09-12T07:17:42.531Z,13.27
2017-09-12T07:18:42.203Z,13.42
2017-09-12T07:19:42.516Z,13.58
2017-09-12T07:20:42.506Z,13.65
2017-09-12T07:21:42.168Z,13.76
2017-09-12T07:22:42.489Z,13.81
2017-09-12T07:23:42.164Z,13.73
2017-09-12T07:24:42.473Z,13.68
2017-09-12T07:25:42.472Z,13.7
2017-09-12T07:26:42.486Z,13.68
2017-09-12T07:27:42.131Z,13.68
2017-09-12T07:28:42.452Z,13.62
2017-09-12T07:29:42.447Z,13.6
2017-09-12T07:30:42.438Z,13.62
2017-09-12T07:31:42.102Z,13.55
2017-09-12T07:32:42.430Z,13.5
2017-09-12T07:33:42.088Z,13.53
2017-09-12T07:34:42.085Z,13.45
2017-09-12T07:35:42.734Z,13.39
2017-09-12T07:36:42.067Z,13.37
2017-09-12T07:37:42.386Z,13.32
2017-09-12T07:38:42.056Z,13.39
2017-09-12T07:39:42.433Z,13.32
2017-09-12T07:40:42.369Z,13.2
2017-09-12T07:41:42.358Z,13.25
2017-09-12T07:42:42.381Z,13.24
2017-09-12T07:43:42.350Z,13.19
2017-09-12T07:44:42.011Z,13.21
2017-09-12T07:45:42.009Z,13.16
2017-09-12T07:46:42.006Z,13.14
2017-09-12T07:47:42.004Z,13.35
2017-09-12T07:48:41.984Z,13.31
2017-09-12T07:49:41.980Z,13.31
2017-09-12T07:50:41.995Z,13.45
2017-09-12T07:51:42.293Z,13.4
2017-09-12T07:52:42.287Z,13.48
2017-09-12T07:53:41.965Z,13.68
2017-09-12T07:54:41.946Z,13.87
2017-09-12T07:55:42.267Z,13.99
2017-09-12T07:56:41.936Z,14.13
2017-09-12T07:57:42.250Z,14.3
2017-09-12T07:58:41.921Z,14.3
2017-09-12T07:59:41.916Z,14.34
2017-09-12T08:00:41.908Z,14.31
2017-09-12T08:01:42.248Z,14.27
2017-09-12T08:02:41.896Z,14.13
2017-09-12T08:03:42.545Z,14.01
2017-09-12T08:04:42.214Z,13.84
2017-09-12T08:05:41.875Z,13.76
2017-09-12T08:06:41.868Z,13.86
2017-09-12T08:07:42.189Z,14.03
2017-09-12T08:08:42.197Z,14.3
2017-09-12T08:09:42.178Z,14.28
2017-09-12T08:10:42.200Z,14.36
2017-09-12T08:11:41.841Z,14.16
2017-09-12T08:12:41.833Z,14.03
2017-09-12T08:13:41.843Z,13.93
2017-09-12T08:14:42.154Z,13.81
2017-09-12T08:15:42.477Z,13.68
2017-09-12T08:16:42.137Z,13.5
2017-09-12T08:17:42.465Z,13.47
2017-09-12T08:18:41.813Z,13.48
2017-09-12T08:19:41.788Z,13.39
2017-09-12T08:20:41.781Z,13.4
2017-09-12T08:21:42.105Z,13.28
2017-09-12T08:22:41.771Z,13.29
2017-09-12T08:23:42.105Z,13.36
2017-09-12T08:24:41.821Z,13.45
2017-09-12T08:25:42.087Z,13.42
2017-09-12T08:26:41.745Z,13.45
2017-09-12T08:27:42.072Z,13.57
2017-09-12T08:28:41.732Z,13.54
2017-09-12T08:29:42.381Z,13.54
2017-09-12T08:30:41.715Z,13.48
2017-09-12T08:31:42.040Z,13.29
2017-09-12T08:32:42.041Z,13.32
2017-09-12T08:33:42.027Z,13.31
2017-09-12T08:34:42.020Z,13.36
2017-09-12T08:35:42.054Z,13.28
2017-09-12T08:36:42.012Z,13.28
2017-09-12T08:37:41.688Z,13.39
2017-09-12T08:38:42.003Z,13.37
2017-09-12T08:39:41.984Z,13.37
2017-09-12T08:40:41.981Z,13.4
2017-09-12T08:41:41.995Z,13.35
2017-09-12T08:42:41.968Z,13.44
2017-09-12T08:43:42.288Z,13.58
2017-09-12T08:44:41.627Z,13.7
2017-09-12T08:45:41.637Z,13.84
2017-09-12T08:46:41.942Z,14.03
2017-09-12T08:47:42.260Z,14.27
2017-09-12T08:48:41.932Z,14.34
2017-09-12T08:49:41.925Z,14.45
2017-09-12T08:50:41.591Z,14.44
2017-09-12T08:51:41.788Z,14.48
2017-09-12T08:52:41.574Z,14.42
2017-09-12T08:53:41.959Z,14.46
2017-09-12T08:54:42.280Z,14.49
2017-09-12T08:55:42.213Z,14.53
2017-09-12T08:56:41.555Z,14.46
2017-09-12T08:57:41.876Z,14.48
2017-09-12T08:58:41.867Z,14.46
2017-09-12T08:59:42.233Z,14.69
2017-09-12T09:00:42.184Z,14.61
2017-09-12T09:01:41.849Z,14.64
2017-09-12T09:02:41.735Z,14.67
2017-09-12T09:03:41.509Z,14.67
2017-09-12T09:04:41.854Z,14.69
2017-09-12T09:05:41.835Z,14.75
2017-09-12T09:06:41.529Z,14.86
2017-09-12T09:07:42.157Z,14.86
2017-09-12T09:08:41.810Z,14.95
2017-09-12T09:09:41.502Z,15.01
2017-09-12T09:10:41.494Z,14.98
2017-09-12T09:11:41.797Z,15.13
2017-09-12T09:12:41.789Z,15.23
2017-09-12T09:13:41.467Z,15.16
2017-09-12T09:14:41.477Z,15.02
2017-09-12T09:15:41.784Z,15.01
2017-09-12T09:16:42.097Z,15.04
2017-09-12T09:17:41.435Z,15.02
2017-09-12T09:18:41.429Z,15.12
2017-09-12T09:19:42.104Z,15.22
2017-09-12T09:20:42.076Z,15.31
2017-09-12T09:21:41.415Z,15.4
2017-09-12T09:22:41.406Z,15.37
2017-09-12T09:23:41.414Z,15.38
2017-09-12T09:24:41.725Z,15.38
2017-09-12T09:25:41.391Z,15.26
2017-09-12T09:26:41.389Z,15.07
2017-09-12T09:27:41.723Z,15.01
2017-09-12T09:28:41.719Z,14.82
2017-09-12T09:29:42.065Z,14.82
2017-09-12T09:30:41.705Z,14.89
2017-09-12T09:31:49.576Z,14.71
2017-09-12T09:32:41.685Z,14.79
2017-09-12T09:33:41.349Z,14.74
2017-09-12T09:34:41.671Z,14.69
2017-09-12T09:35:41.669Z,14.8
2017-09-12T09:36:41.333Z,14.85
2017-09-12T09:37:41.674Z,14.87
2017-09-12T09:38:41.650Z,14.89
2017-09-12T09:39:41.317Z,14.93
2017-09-12T09:40:41.323Z,14.95
2017-09-12T09:41:41.316Z,14.83
2017-09-12T09:42:41.632Z,14.75
2017-09-12T09:43:41.297Z,14.66
2017-09-12T09:44:41.288Z,14.64
2017-09-12T09:45:41.628Z,14.61
2017-09-12T09:46:41.280Z,14.6
2017-09-12T09:47:41.671Z,14.51
2017-09-12T09:48:41.598Z,14.53
2017-09-12T09:49:41.615Z,14.49
2017-09-12T09:50:41.585Z,14.49
2017-09-12T09:51:41.581Z,14.51
2017-09-12T09:52:41.588Z,14.59
2017-09-12T09:53:41.244Z,14.48
2017-09-12T09:54:41.243Z,14.46
2017-09-12T09:55:41.559Z,14.36
2017-09-12T09:56:41.558Z,14.3
2017-09-12T09:57:41.224Z,14.34
2017-09-12T09:58:41.552Z,14.34
2017-09-12T09:59:41.539Z,14.15
2017-09-12T10:00:41.205Z,14.11
2017-09-12T10:01:41.865Z,14.19
2017-09-12T10:02:41.205Z,14.11
2017-09-12T10:03:41.189Z,14.19
2017-09-12T10:04:41.518Z,14.09
2017-09-12T10:05:41.505Z,14.16
2017-09-12T10:06:41.536Z,14.24
2017-09-12T10:07:41.493Z,14.27
2017-09-12T10:08:41.164Z,14.28
2017-09-12T10:09:41.496Z,14.36
2017-09-12T10:10:41.167Z,14.38
2017-09-12T10:11:41.469Z,14.44
2017-09-12T10:12:41.142Z,14.49
2017-09-12T10:13:41.480Z,14.49
2017-09-12T10:14:41.490Z,14.51
2017-09-12T10:15:41.120Z,14.46
2017-09-12T10:16:41.118Z,14.51
2017-09-12T10:17:41.111Z,14.49
2017-09-12T10:18:41.796Z,14.59
2017-09-12T10:19:41.099Z,14.6
2017-09-12T10:20:41.116Z,14.6
2017-09-12T10:21:41.417Z,14.66
2017-09-12T10:22:41.105Z,14.69
2017-09-12T10:23:41.422Z,14.77
2017-09-12T10:24:41.403Z,14.69
2017-09-12T10:25:41.398Z,14.71
2017-09-12T10:26:41.451Z,14.83
2017-09-12T10:27:41.384Z,14.98
2017-09-12T10:28:41.407Z,15.07
2017-09-12T10:29:41.050Z,15.16
2017-09-12T10:30:41.041Z,15.13
2017-09-12T10:31:41.706Z,15.2
2017-09-12T10:32:41.359Z,15.18
2017-09-12T10:33:41.370Z,15.25
2017-09-12T10:34:41.350Z,15.25
2017-09-12T10:35:41.672Z,15.19
2017-09-12T10:36:41.011Z,15.16
2017-09-12T10:37:41.670Z,15.07
2017-09-12T10:38:41.343Z,15.13
2017-09-12T10:39:41.324Z,15.13
2017-09-12T10:40:41.359Z,15.07
2017-09-12T10:41:40.985Z,15.08
2017-09-12T10:42:41.306Z,15.15
2017-09-12T10:43:40.978Z,15.19
2017-09-12T10:44:40.967Z,15.37
2017-09-12T10:45:41.292Z,15.37
2017-09-12T10:46:41.623Z,15.49
2017-09-12T10:47:41.293Z,15.55
2017-09-12T10:48:40.953Z,15.58
2017-09-12T10:49:41.610Z,15.7
2017-09-12T10:50:41.268Z,15.75
2017-09-12T10:51:40.934Z,15.71
2017-09-12T10:52:40.929Z,15.77
2017-09-12T10:53:41.598Z,15.71
2017-09-12T10:54:41.269Z,15.58
2017-09-12T10:55:41.246Z,15.59
2017-09-12T10:56:40.913Z,15.55
2017-09-12T10:57:41.598Z,15.58
2017-09-12T10:58:40.912Z,15.38
2017-09-12T10:59:40.899Z,15.22
2017-09-12T11:00:41.243Z,15.12
2017-09-12T11:01:40.885Z,15.1
2017-09-12T11:02:41.558Z,14.86
2017-09-12T11:03:40.877Z,14.87
2017-09-12T11:04:41.216Z,14.71
2017-09-12T11:05:40.867Z,14.74
2017-09-12T11:06:41.196Z,14.61
2017-09-12T11:07:41.205Z,14.75
2017-09-12T11:08:41.181Z,14.71
2017-09-12T11:09:40.851Z,14.69
2017-09-12T11:10:41.171Z,14.82
2017-09-12T11:11:41.165Z,14.9
2017-09-12T11:12:40.851Z,14.83
2017-09-12T11:13:41.154Z,14.94
2017-09-12T11:14:40.820Z,15.05
2017-09-12T11:15:41.180Z,15.15
2017-09-12T11:16:40.813Z,15.2
2017-09-12T11:17:40.820Z,15.3
2017-09-12T11:18:41.135Z,15.45
2017-09-12T11:19:40.795Z,15.53
2017-09-12T11:20:41.131Z,15.74
2017-09-12T11:21:40.829Z,15.81
2017-09-12T11:22:40.779Z,16.13
2017-09-12T11:23:42.453Z,16.27
2017-09-12T11:24:40.771Z,16.32
2017-09-12T11:25:41.427Z,16.36
2017-09-12T11:26:40.761Z,16.3
2017-09-12T11:27:41.086Z,16.34
2017-09-12T11:28:41.105Z,16.42
2017-09-12T11:29:41.403Z,16.48
2017-09-12T11:30:40.748Z,16.58
2017-09-12T11:31:40.771Z,16.67
2017-09-12T11:32:40.737Z,16.67
2017-09-12T11:33:40.729Z,16.69
2017-09-12T11:34:41.053Z,16.66
2017-09-12T11:35:41.059Z,16.69
2017-09-12T11:36:40.718Z,16.74
2017-09-12T11:37:40.733Z,16.69
2017-09-12T11:38:41.047Z,16.69
2017-09-12T11:39:40.713Z,16.73
2017-09-12T11:40:40.718Z,16.94
2017-09-12T11:41:40.714Z,17.02
2017-09-12T11:42:41.053Z,16.97
2017-09-12T11:43:41.043Z,16.95
2017-09-12T11:44:40.687Z,17.02
2017-09-12T11:45:41.054Z,16.99
2017-09-12T11:46:40.690Z,16.85
2017-09-12T11:47:41.003Z,16.87
2017-09-12T11:48:40.998Z,16.81
2017-09-12T11:49:40.682Z,16.9
2017-09-12T11:50:40.676Z,17
2017-09-12T11:51:41.027Z,16.97
2017-09-12T11:52:40.678Z,16.99
2017-09-12T11:53:41.315Z,16.85
2017-09-12T11:54:40.670Z,16.92
2017-09-12T11:55:40.978Z,16.95
2017-09-12T11:56:40.648Z,16.82
2017-09-12T11:57:40.640Z,16.72
2017-09-12T11:58:41.298Z,16.7
2017-09-12T11:59:40.633Z,16.67
2017-09-12T12:00:40.640Z,16.67
2017-09-12T12:01:40.961Z,16.7
2017-09-12T12:02:40.969Z,16.7
2017-09-12T12:03:40.949Z,16.76
2017-09-12T12:04:40.615Z,16.77
2017-09-12T12:05:41.268Z,16.8
2017-09-12T12:06:40.933Z,16.77
2017-09-12T12:07:40.601Z,16.87
2017-09-12T12:08:40.942Z,16.84
2017-09-12T12:09:40.598Z,16.85
2017-09-12T12:10:45.565Z,16.85
2017-09-12T12:11:40.927Z,16.7
2017-09-12T12:12:40.585Z,16.66
2017-09-12T12:13:40.918Z,16.65
2017-09-12T12:14:40.577Z,16.73
2017-09-12T12:15:41.250Z,16.76
2017-09-12T12:16:40.906Z,16.7
2017-09-12T12:17:40.899Z,16.59
2017-09-12T12:18:40.917Z,16.58
2017-09-12T12:19:40.912Z,16.55
2017-09-12T12:20:40.553Z,16.55
2017-09-12T12:21:40.562Z,16.69
2017-09-12T12:22:40.912Z,16.7
2017-09-12T12:23:40.546Z,16.7
2017-09-12T12:24:40.871Z,16.63
2017-09-12T12:25:40.546Z,16.63
2017-09-12T12:26:40.883Z,16.63
2017-09-12T12:27:41.200Z,16.62
2017-09-12T12:28:40.525Z,16.59
2017-09-12T12:29:40.863Z,16.63
2017-09-12T12:30:40.519Z,16.59
2017-09-12T12:31:40.517Z,16.57
2017-09-12T12:32:40.855Z,16.54
2017-09-12T12:33:40.838Z,16.48
2017-09-12T12:34:40.505Z,16.42
2017-09-12T12:35:40.827Z,16.37
2017-09-12T12:36:41.154Z,16.25
2017-09-12T12:37:40.493Z,16.21
2017-09-12T12:38:40.816Z,16.32
2017-09-12T12:39:40.821Z,16.21
2017-09-12T12:40:40.831Z,16.07
2017-09-12T12:41:40.480Z,16.02
2017-09-12T12:42:41.149Z,16.06
2017-09-12T12:43:41.149Z,16
2017-09-12T12:44:40.670Z,16.16
2017-09-12T12:45:40.464Z,16.21
2017-09-12T12:46:40.461Z,16.26
2017-09-12T12:47:40.454Z,16.21
2017-09-12T12:48:40.800Z,16.34
2017-09-12T12:49:40.445Z,16.29
2017-09-12T12:50:41.126Z,16.33
2017-09-12T12:51:40.445Z,16.34
2017-09-12T12:52:40.824Z,16.32
2017-09-12T12:53:40.757Z,16.29
2017-09-12T12:54:40.424Z,16.32
2017-09-12T12:55:41.081Z,16.39
2017-09-12T12:56:40.418Z,16.58
2017-09-12T12:57:40.413Z,16.67
2017-09-12T12:58:40.737Z,16.67
2017-09-12T12:59:40.406Z,16.65
2017-09-12T13:00:40.750Z,16.45
2017-09-12T13:01:40.398Z,16.4
2017-09-12T13:02:40.724Z,16.27
2017-09-12T13:03:40.398Z,16.11
2017-09-12T13:04:40.714Z,16